ADDS METAR Data INFO
IDs: Format: Raw Decoded Include TAF

Data at: 0934 UTC 11 Dec 2017

KLUD 110915Z AUTO 25006KT 10SM CLR 10/M05 A3026 RMK AO2 T00961048
KLUD 110855Z AUTO 25007KT 10SM CLR 10/M04 A3026 RMK AO2 T00961044
KLUD 110835Z AUTO 24007KT 10SM CLR 10/M04 A3026 RMK AO2 T01001040
KLUD 110815Z AUTO 24007KT 10SM CLR 10/M04 A3026 RMK AO2 T01011045
KLUD 110755Z AUTO 24007KT 10SM CLR 10/M06 A3027 RMK AO2 T01031056
KLUD 110735Z AUTO 24007KT 10SM CLR 11/M05 A3026 RMK AO2 T01051050
KLUD 110715Z AUTO 24008KT 10SM CLR 11/M06 A3027 RMK AO2 T01051061
KLUD 110655Z AUTO 23008KT 10SM CLR 12/M07 A3027 RMK AO2 T01161074
KLUD 110635Z AUTO 24008KT 10SM CLR 12/M07 A3027 RMK AO2 T01191074
KLUD 110615Z AUTO 24007KT 10SM CLR 12/M08 A3027 RMK AO2 T01201076
KLUD 110555Z AUTO 24007KT 10SM CLR 12/M08 A3027 RMK AO2 T01231081 10176 20123
KLUD 110535Z AUTO 23007KT 10SM CLR 13/M09 A3027 RMK AO2 T01281094
KLUD 110515Z AUTO 24006KT 10SM CLR 13/M10 A3027 RMK AO2 T01321102
KLUD 110455Z AUTO 26004KT 10SM CLR 14/M11 A3027 RMK AO2 T01381106
KLUD 110435Z AUTO 24006KT 10SM CLR 13/M10 A3027 RMK AO2 T01341101
KLUD 110415Z AUTO 23007KT 10SM CLR 14/M10 A3028 RMK AO2 T01361100
KLUD 110355Z AUTO 23006KT 10SM CLR 14/M09 A3029 RMK AO2 T01381095
KLUD 110335Z AUTO 24006KT 10SM CLR 15/M09 A3029 RMK AO2 T01451095
KLUD 110315Z AUTO 24005KT 10SM CLR 15/M10 A3029 RMK AO2 T01451105
KLUD 110255Z AUTO 23006KT 10SM CLR 15/M11 A3029 RMK AO2 T01511111
KLUD 110235Z AUTO 23006KT 10SM CLR 15/M11 A3029 RMK AO2 T01511114
KLUD 110215Z AUTO 24005KT 10SM CLR 15/M12 A3029 RMK AO2 T01541117
KLUD 110155Z AUTO 26006KT 10SM CLR 16/M12 A3029 RMK AO2 T01631117
KLUD 110135Z AUTO 28005KT 10SM CLR 16/M11 A3029 RMK AO2 T01611115
KLUD 110115Z AUTO 29004KT 10SM CLR 17/M12 A3029 RMK AO2 T01681119
KLUD 110055Z AUTO 29004KT 10SM CLR 17/M12 A3029 RMK AO2 T01711119
KLUD 110035Z AUTO 30004KT 10SM CLR 17/M12 A3029 RMK AO2 T01721118
KLUD 110015Z AUTO 29004KT 10SM CLR 18/M12 A3029 RMK AO2 T01761117
KLUD 102355Z AUTO 28004KT 10SM CLR 17/M12 A3029 RMK AO2 T01731117 10221 20157
KLUD 102335Z AUTO 27005KT 10SM CLR 18/M12 A3029 RMK AO2 T01771117
KLUD 102315Z AUTO 29005KT 10SM CLR 19/M12 A3028 RMK AO2 T01911116
KLUD 102255Z AUTO 28004KT 10SM CLR 20/M12 A3028 RMK AO2 T02041116
KLUD 102235Z AUTO 27006KT 10SM CLR 21/M11 A3028 RMK AO2 T02141115
KLUD 102215Z AUTO 29006KT 10SM CLR 22/M12 A3028 RMK AO2 T02181121
KLUD 102155Z AUTO 28008G16KT 10SM CLR 22/M11 A3028 RMK AO2 T02201112
KLUD 102135Z AUTO 27009KT 10SM CLR 22/M10 A3028 RMK AO2 T02201104
KLUD 102115Z AUTO 28009KT 10SM CLR 22/M10 A3028 RMK AO2 T02211103
KLUD 102055Z AUTO 27010KT 10SM CLR 22/M10 A3028 RMK AO2 T02191099
KLUD 102035Z AUTO 27009KT 10SM CLR 22/M09 A3029 RMK AO2 T02191094
KLUD 102015Z AUTO 27009G14KT 10SM CLR 21/M09 A3029 RMK AO2 T02091091
KLUD 101955Z AUTO 27007KT 10SM CLR 21/M09 A3030 RMK AO2 T02051086
KLUD 101935Z AUTO 27008KT 10SM CLR 20/M08 A3031 RMK AO2 T02011083
KLUD 101915Z AUTO 26007KT 10SM CLR 20/M08 A3032 RMK AO2 T01961076
KLUD 101855Z AUTO 27009KT 10SM CLR 19/M07 A3032 RMK AO2 T01881071
KLUD 101835Z AUTO 25011KT 10SM CLR 18/M06 A3034 RMK AO2 T01781065
KLUD 101815Z AUTO 26007KT 10SM CLR 17/M06 A3035 RMK AO2 T01671056
KLUD 101755Z AUTO 25008KT 10SM CLR 16/M05 A3036 RMK AO2 6//// T01591051
KLUD 101735Z AUTO 26008KT 10SM CLR 15/M05 A3037 RMK AO2 T01471051
KLUD 101715Z AUTO 26007KT 10SM CLR 14/M04 A3037 RMK AO2 T01351042
KLUD 101655Z AUTO 27008KT 10SM CLR 12/M04 A3038 RMK AO2 T01151045
KLUD 101635Z AUTO 25008KT 10SM CLR 11/M04 A3037 RMK AO2 T01091040
KLUD 101615Z AUTO 26007KT 10SM CLR 09/M04 A3038 RMK AO2 T00891039
KLUD 101555Z AUTO 26007KT 10SM CLR 08/M05 A3038 RMK AO2 T00791046
KLUD 101535Z AUTO 26006KT 10SM CLR 07/M03 A3038 RMK AO2 T00741032
KLUD 100910Z AUTO 23007KT 10SM CLR 05/00 A3034 RMK AO2 T00451005
KLUD 100850Z AUTO 23006KT 10SM CLR 05/00 A3034 RMK AO2 T00501002
KLUD 100830Z AUTO 23006KT 10SM CLR 06/00 A3034 RMK AO2 T00561001
KLUD 100815Z AUTO 23005KT 10SM CLR 06/00 A3034 RMK AO2 T00581001
KLUD 100755Z AUTO 23004KT 10SM CLR 06/00 A3034 RMK AO2 T00570001
KLUD 100735Z AUTO 24004KT 10SM CLR 06/00 A3035 RMK AO2 T00580003
KLUD 100715Z AUTO 24004KT 10SM CLR 06/00 A3036 RMK AO2 T00590000
KLUD 100655Z AUTO 24005KT 10SM CLR 06/M01 A3036 RMK AO2 T00591006
KLUD 100635Z AUTO 23005KT 10SM CLR 06/M03 A3036 RMK AO2 T00631026
KLUD 100615Z AUTO 24005KT 10SM CLR 06/M05 A3036 RMK AO2 T00631046
KLUD 100550Z AUTO 24004KT 10SM CLR 07/M06 A3035 RMK AO2 T00671058 10100 20067
KLUD 100535Z AUTO 24004KT 10SM CLR 07/M06 A3035 RMK AO2 T00731060
KLUD 100515Z AUTO 23004KT 10SM CLR 08/M06 A3034 RMK AO2 T00751060
KLUD 100455Z AUTO 25004KT 10SM CLR 08/M06 A3034 RMK AO2 T00781062
KLUD 100435Z AUTO 25004KT 10SM CLR 07/M06 A3033 RMK AO2 T00741062
KLUD 100410Z AUTO 26003KT 10SM CLR 08/M06 A3033 RMK AO2 T00801062
KLUD 100355Z AUTO 26003KT 10SM CLR 08/M06 A3032 RMK AO2 T00751060
KLUD 100335Z AUTO 26003KT 10SM CLR 09/M06 A3032 RMK AO2 T00881064
KLUD 100315Z AUTO 28003KT 10SM CLR 09/M06 A3032 RMK AO2 T00881065
KLUD 100255Z AUTO 30004KT 10SM CLR 09/M06 A3031 RMK AO2 T00871062
KLUD 100235Z AUTO 29003KT 10SM CLR 09/M06 A3031 RMK AO2 T00891062
KLUD 100215Z AUTO 30003KT 10SM CLR 09/M06 A3031 RMK AO2 T00881060
KLUD 100155Z AUTO 28003KT 10SM CLR 09/M06 A3030 RMK AO2 T00901060
KLUD 100135Z AUTO 30003KT 10SM CLR 09/M06 A3030 RMK AO2 T00891060
KLUD 100115Z AUTO 32004KT 10SM CLR 09/M06 A3029 RMK AO2 T00931060
KLUD 100055Z AUTO 30003KT 10SM CLR 09/M06 A3029 RMK AO2 T00941059
KLUD 100035Z AUTO 32003KT 10SM CLR 10/M06 A3029 RMK AO2 T00951058
KLUD 100015Z AUTO 31004KT 10SM CLR 10/M06 A3029 RMK AO2 T00981059
KLUD 092355Z AUTO 30003KT 10SM CLR 10/M06 A3028 RMK AO2 T01001060 10141 20099
KLUD 092335Z AUTO 31003KT 10SM CLR 11/M06 A3028 RMK AO2 T01061060
KLUD 092315Z AUTO 32004KT 10SM CLR 12/M06 A3027 RMK AO2 T01161060
KLUD 092255Z AUTO 31008KT 10SM CLR 13/M06 A3027 RMK AO2 T01251059
KLUD 092235Z AUTO 31007KT 10SM CLR 13/M06 A3027 RMK AO2 T01321057
KLUD 092215Z AUTO 32009G14KT 10SM CLR 14/M06 A3026 RMK AO2 T01351056
KLUD 092155Z AUTO 32008KT 10SM CLR 14/M05 A3026 RMK AO2 T01351055
KLUD 092135Z AUTO 33008KT 10SM CLR 14/M06 A3025 RMK AO2 T01371059